Time;durP1;ratioP1;P1;durP2;ratioP2;P2;SDS_P1;SDS_P2;PMS_P1;PMS_P2;Temp;Humidity;BMP_temperature;BMP_pressure;BME280_temperature;BME280_humidity;BME280_pressure;Samples;Min_cycle;Max_cycle;Signal;HPM_P1;HPM_P2
2022/04/22 00:01:31;;;;;;;7.32;4.10;;;;;;;;;;5112337;28;20043;-86
2022/04/22 00:03:57;;;;;;;7.05;4.40;;;;;;;;;;5115112;27;20019;-86
2022/04/22 00:06:23;;;;;;;5.97;3.88;;;;;;;;;;5124733;27;20029;-86
2022/04/22 00:08:49;;;;;;;5.05;4.03;;;;;;;;;;5113642;27;20028;-86
2022/04/22 00:11:29;;;;;;;6.97;3.47;;;;;;;;;;5115661;27;20047;-87
2022/04/22 00:13:57;;;;;;;9.38;4.45;;;;;;;;;;5123618;27;20029;-84
2022/04/22 00:16:22;;;;;;;8.35;4.28;;;;;;;;;;5116817;27;20030;-86
2022/04/22 00:18:48;;;;;;;5.25;3.75;;;;;;;;;;5124703;27;20031;-86
2022/04/22 00:21:13;;;;;;;7.85;3.70;;;;;;;;;;5121869;27;20027;-86
2022/04/22 00:23:39;;;;;;;6.75;3.83;;;;;;;;;;5128649;27;20043;-84
2022/04/22 00:26:05;;;;;;;5.53;3.70;;;;;;;;;;5118827;27;20023;-87
2022/04/22 00:28:30;;;;;;;6.45;3.75;;;;;;;;;;5119775;27;20019;-86
2022/04/22 00:30:55;;;;;;;5.85;4.20;;;;;;;;;;5123555;27;20495;-84
2022/04/22 00:33:21;;;;;;;7.88;4.50;;;;;;;;;;5117771;27;20034;-85
2022/04/22 00:35:47;;;;;;;5.47;4.25;;;;;;;;;;5117324;27;20526;-85
2022/04/22 00:38:12;;;;;;;7.45;4.13;;;;;;;;;;5120949;27;20023;-86
2022/04/22 00:40:38;;;;;;;7.53;4.35;;;;;;;;;;5114384;27;20043;-85
2022/04/22 00:43:14;;;;;;;6.43;4.47;;;;;;;;;;5125572;27;20031;-84
2022/04/22 00:45:39;;;;;;;6.00;4.25;;;;;;;;;;5111516;28;20019;-87
2022/04/22 00:48:05;;;;;;;5.97;3.30;;;;;;;;;;5117107;27;20027;-87
2022/04/22 00:50:30;;;;;;;8.95;3.75;;;;;;;;;;5111699;28;20040;-86
2022/04/22 00:52:56;;;;;;;4.75;2.50;;;;;;;;;;5111389;28;20064;-86
2022/04/22 00:55:22;;;;;;;7.47;3.92;;;;;;;;;;5123661;27;20487;-86
2022/04/22 00:57:49;;;;;;;8.63;4.50;;;;;;;;;;5114711;27;20031;-86
2022/04/22 01:00:15;;;;;;;6.63;3.95;;;;;;;;;;5125761;27;20072;-86
2022/04/22 01:02:40;;;;;;;6.00;3.95;;;;;;;;;;5119744;27;20031;-86
2022/04/22 01:10:37;;;;;;;4.65;2.92;;;;;;;;;;5120299;27;20033;-87
2022/04/22 01:13:02;;;;;;;6.47;3.28;;;;;;;;;;5124362;27;20024;-85
2022/04/22 01:15:28;;;;;;;8.20;3.20;;;;;;;;;;5124496;27;20069;-86
2022/04/22 01:17:54;;;;;;;5.28;2.67;;;;;;;;;;5119088;27;20023;-85
2022/04/22 01:20:19;;;;;;;6.32;2.95;;;;;;;;;;5126048;27;20023;-85
2022/04/22 01:22:44;;;;;;;6.20;3.53;;;;;;;;;;5127771;27;20111;-85
2022/04/22 01:25:10;;;;;;;7.72;3.92;;;;;;;;;;5122533;28;20023;-85
2022/04/22 01:27:37;;;;;;;6.80;3.90;;;;;;;;;;5125821;27;20028;-84
2022/04/22 01:30:08;;;;;;;6.50;3.47;;;;;;;;;;5123742;27;20498;-85
2022/04/22 01:32:34;;;;;;;4.72;3.17;;;;;;;;;;5114209;28;20051;-85
2022/04/22 01:35:00;;;;;;;6.15;3.13;;;;;;;;;;5125642;28;20386;-87
2022/04/22 01:37:25;;;;;;;6.45;2.33;;;;;;;;;;5119867;27;20031;-85
2022/04/22 01:39:52;;;;;;;5.40;2.20;;;;;;;;;;5118110;27;20043;-85
2022/04/22 01:42:20;;;;;;;3.83;2.25;;;;;;;;;;5120199;27;20030;-86
2022/04/22 01:44:46;;;;;;;7.72;2.42;;;;;;;;;;5122900;27;20033;-85
2022/04/22 01:47:12;;;;;;;9.57;2.88;;;;;;;;;;5122391;27;20023;-86
2022/04/22 01:49:37;;;;;;;2.83;1.98;;;;;;;;;;5118317;27;20019;-86
2022/04/22 01:52:03;;;;;;;10.10;2.75;;;;;;;;;;5127246;27;20031;-87
2022/04/22 01:54:28;;;;;;;6.50;2.47;;;;;;;;;;5121902;27;20490;-86
2022/04/22 01:56:54;;;;;;;6.75;2.08;;;;;;;;;;5121092;27;20481;-85
2022/04/22 01:59:19;;;;;;;5.45;2.08;;;;;;;;;;5128991;27;20043;-86
2022/04/22 02:01:45;;;;;;;5.20;2.40;;;;;;;;;;5116609;27;20032;-86
2022/04/22 02:04:10;;;;;;;10.20;3.47;;;;;;;;;;5118521;27;20027;-85
2022/04/22 02:06:36;;;;;;;4.05;2.30;;;;;;;;;;5123835;27;20168;-86
2022/04/22 02:09:01;;;;;;;6.40;2.35;;;;;;;;;;5125067;27;20019;-86
2022/04/22 02:11:26;;;;;;;5.45;3.28;;;;;;;;;;5121812;27;20019;-85
2022/04/22 02:13:52;;;;;;;8.02;4.65;;;;;;;;;;5127723;27;20042;-86
2022/04/22 02:16:17;;;;;;;6.05;4.32;;;;;;;;;;5122198;27;20023;-86
2022/04/22 02:18:43;;;;;;;6.40;4.93;;;;;;;;;;5133407;27;20465;-87
2022/04/22 02:21:10;;;;;;;10.13;5.22;;;;;;;;;;5116536;27;20536;-87
2022/04/22 02:23:36;;;;;;;7.47;4.22;;;;;;;;;;5119499;27;20394;-87
2022/04/22 02:26:03;;;;;;;5.85;3.35;;;;;;;;;;5129138;27;20030;-87
2022/04/22 02:28:31;;;;;;;8.10;3.10;;;;;;;;;;5118995;27;20390;-87
2022/04/22 02:31:02;;;;;;;4.65;3.10;;;;;;;;;;5121846;27;20022;-87
2022/04/22 02:33:38;;;;;;;6.10;2.72;;;;;;;;;;5116493;27;20027;-87
2022/04/22 02:36:04;;;;;;;6.20;2.20;;;;;;;;;;5123276;27;20475;-87
2022/04/22 02:38:31;;;;;;;4.47;2.40;;;;;;;;;;5123853;27;20441;-87
2022/04/22 02:46:27;;;;;;;7.05;3.22;;;;;;;;;;5125796;27;20129;-87
2022/04/22 02:48:59;;;;;;;6.32;2.83;;;;;;;;;;5117938;27;20366;-87
2022/04/22 02:51:25;;;;;;;6.40;2.70;;;;;;;;;;5117010;27;20022;-87
2022/04/22 02:53:52;;;;;;;8.45;3.38;;;;;;;;;;5119501;27;20093;-87
2022/04/22 02:56:20;;;;;;;9.02;2.67;;;;;;;;;;5114832;27;20028;-87
2022/04/22 02:58:46;;;;;;;3.30;2.08;;;;;;;;;;5117587;27;20470;-87
2022/04/22 03:01:14;;;;;;;3.10;2.17;;;;;;;;;;5114023;28;20066;-87
2022/04/22 03:03:39;;;;;;;5.07;2.58;;;;;;;;;;5116766;27;20316;-87
2022/04/22 03:06:05;;;;;;;4.00;2.70;;;;;;;;;;5115382;27;20102;-87
2022/04/22 03:08:32;;;;;;;5.00;2.85;;;;;;;;;;5118254;27;20077;-87
2022/04/22 03:10:57;;;;;;;7.32;2.60;;;;;;;;;;5117450;27;20119;-87
2022/04/22 03:13:23;;;;;;;5.82;2.08;;;;;;;;;;5118993;27;20047;-87
2022/04/22 03:15:49;;;;;;;4.82;1.90;;;;;;;;;;5117356;27;20421;-87
2022/04/22 03:18:14;;;;;;;6.05;2.50;;;;;;;;;;5118376;27;20031;-87
2022/04/22 03:20:40;;;;;;;6.32;2.58;;;;;;;;;;5114074;28;20019;-87
2022/04/22 03:23:06;;;;;;;5.38;2.15;;;;;;;;;;5121406;27;20081;-87
2022/04/22 03:25:31;;;;;;;6.50;3.10;;;;;;;;;;5115318;27;20025;-87
2022/04/22 03:27:57;;;;;;;4.20;2.25;;;;;;;;;;5124949;27;20109;-87
2022/04/22 03:30:22;;;;;;;5.50;3.00;;;;;;;;;;5115451;27;20073;-87
2022/04/22 03:32:48;;;;;;;9.00;3.35;;;;;;;;;;5119793;27;20034;-87
2022/04/22 03:35:13;;;;;;;8.15;3.05;;;;;;;;;;5127639;27;20019;-86
2022/04/22 03:37:41;;;;;;;12.30;4.75;;;;;;;;;;5123234;27;20053;-85
2022/04/22 03:40:09;;;;;;;4.43;3.25;;;;;;;;;;5122677;27;20043;-86
2022/04/22 03:42:36;;;;;;;4.15;3.10;;;;;;;;;;5123193;27;20053;-85
2022/04/22 03:45:03;;;;;;;5.60;3.17;;;;;;;;;;5117727;27;20494;-86
2022/04/22 03:47:28;;;;;;;6.80;3.30;;;;;;;;;;5115992;27;20047;-85
2022/04/22 03:49:54;;;;;;;5.47;2.70;;;;;;;;;;5125583;27;20058;-85
2022/04/22 03:52:19;;;;;;;7.85;3.33;;;;;;;;;;5114041;27;20030;-84
2022/04/22 03:54:45;;;;;;;4.68;3.28;;;;;;;;;;5118379;27;20019;-85
2022/04/22 03:59:54;;;;;;;6.57;3.92;;;;;;;;;;5122412;27;20033;-84
2022/04/22 04:02:20;;;;;;;6.22;4.03;;;;;;;;;;5128236;27;20023;-83
2022/04/22 04:04:47;;;;;;;7.97;4.22;;;;;;;;;;5123732;27;20424;-85
2022/04/22 04:07:13;;;;;;;9.98;6.80;;;;;;;;;;5119170;27;20352;-87
2022/04/22 04:17:51;;;;;;;7.68;5.32;;;;;;;;;;5126561;27;20053;-86
2022/04/22 04:23:15;;;;;;;7.80;6.07;;;;;;;;;;5092923;27;20118;-86
2022/04/22 04:25:41;;;;;;;8.93;6.40;;;;;;;;;;5113552;27;20154;-86
2022/04/22 04:28:10;;;;;;;7.57;5.53;;;;;;;;;;5114817;27;20034;-87
2022/04/22 04:30:40;;;;;;;6.95;5.18;;;;;;;;;;5113452;27;20069;-86
2022/04/22 04:33:07;;;;;;;9.55;4.93;;;;;;;;;;5126011;27;20484;-86
2022/04/22 04:35:34;;;;;;;6.32;4.70;;;;;;;;;;5114772;27;20470;-87
2022/04/22 04:38:00;;;;;;;6.72;4.55;;;;;;;;;;5116912;27;20034;-86
2022/04/22 04:40:26;;;;;;;6.57;4.32;;;;;;;;;;5121553;27;20550;-86
2022/04/22 04:42:54;;;;;;;7.00;4.60;;;;;;;;;;5124181;27;20386;-87
2022/04/22 04:45:20;;;;;;;5.10;4.10;;;;;;;;;;5113253;27;20042;-87
2022/04/22 04:47:46;;;;;;;5.30;3.83;;;;;;;;;;5111656;28;20459;-87
2022/04/22 04:50:12;;;;;;;5.15;4.00;;;;;;;;;;5114577;27;20535;-87
2022/04/22 04:52:39;;;;;;;6.78;5.28;;;;;;;;;;5112062;27;20471;-86
2022/04/22 04:55:09;;;;;;;8.93;7.43;;;;;;;;;;5114228;27;20023;-86
2022/04/22 04:57:35;;;;;;;11.68;8.18;;;;;;;;;;5115369;27;20181;-87
2022/04/22 05:00:02;;;;;;;11.88;8.50;;;;;;;;;;5114214;27;20102;-86
2022/04/22 05:02:28;;;;;;;9.10;7.85;;;;;;;;;;5125494;27;20475;-87
2022/04/22 05:04:53;;;;;;;10.52;7.40;;;;;;;;;;5115460;27;20023;-86
2022/04/22 05:07:20;;;;;;;13.77;8.38;;;;;;;;;;5122716;27;20021;-87
2022/04/22 05:09:46;;;;;;;7.63;6.45;;;;;;;;;;5115239;27;20385;-85
2022/04/22 05:12:11;;;;;;;11.55;7.63;;;;;;;;;;5122047;27;20028;-87
2022/04/22 05:14:37;;;;;;;10.35;6.90;;;;;;;;;;5124065;27;20531;-86
2022/04/22 05:17:03;;;;;;;8.18;5.00;;;;;;;;;;5126344;27;20424;-86
2022/04/22 05:19:28;;;;;;;8.65;5.53;;;;;;;;;;5128043;27;20023;-86
2022/04/22 05:21:55;;;;;;;7.63;5.30;;;;;;;;;;5115533;28;20032;-86
2022/04/22 05:24:21;;;;;;;9.05;5.88;;;;;;;;;;5121779;28;20026;-86
2022/04/22 05:26:47;;;;;;;6.63;5.00;;;;;;;;;;5124066;27;20490;-86
2022/04/22 05:34:42;;;;;;;11.98;7.82;;;;;;;;;;5112706;28;20487;-87
2022/04/22 05:37:08;;;;;;;10.45;8.63;;;;;;;;;;5121691;28;20019;-85
2022/04/22 05:39:33;;;;;;;11.30;8.77;;;;;;;;;;5126865;28;20069;-89
2022/04/22 05:42:00;;;;;;;11.27;8.93;;;;;;;;;;5115744;28;20032;-85
2022/04/22 05:44:26;;;;;;;10.23;8.48;;;;;;;;;;5130543;28;20023;-85
2022/04/22 05:46:51;;;;;;;11.05;7.88;;;;;;;;;;5114525;28;20030;-86
2022/04/22 05:49:18;;;;;;;13.43;8.13;;;;;;;;;;5126499;28;20063;-87
2022/04/22 05:51:43;;;;;;;10.63;7.53;;;;;;;;;;5111329;28;20050;-86
2022/04/22 05:54:09;;;;;;;9.02;7.85;;;;;;;;;;5127522;27;20051;-87
2022/04/22 05:56:35;;;;;;;13.45;8.20;;;;;;;;;;5130485;28;20394;-86
2022/04/22 05:59:02;;;;;;;10.63;8.05;;;;;;;;;;5112125;28;20467;-86
2022/04/22 06:01:28;;;;;;;9.80;8.13;;;;;;;;;;5116602;28;20383;-87
2022/04/22 06:03:53;;;;;;;9.45;7.50;;;;;;;;;;5116176;28;20124;-85
2022/04/22 06:06:18;;;;;;;9.10;7.78;;;;;;;;;;5118358;28;20035;-84
2022/04/22 06:11:42;;;;;;;8.70;7.45;;;;;;;;;;5089111;28;20589;-87
2022/04/22 06:14:09;;;;;;;13.93;7.80;;;;;;;;;;5114880;28;20046;-87
2022/04/22 06:16:35;;;;;;;8.32;7.00;;;;;;;;;;5116948;28;20023;-87
2022/04/22 06:19:01;;;;;;;9.55;7.28;;;;;;;;;;5113584;28;20054;-87
2022/04/22 06:21:29;;;;;;;10.10;7.50;;;;;;;;;;5114504;28;20039;-87
2022/04/22 06:23:54;;;;;;;8.15;7.10;;;;;;;;;;5127614;27;20022;-85
2022/04/22 06:26:20;;;;;;;9.43;6.35;;;;;;;;;;5124082;27;20032;-86
2022/04/22 06:28:45;;;;;;;11.40;6.88;;;;;;;;;;5121678;27;20024;-86
2022/04/22 06:31:11;;;;;;;7.30;6.50;;;;;;;;;;5125223;27;20022;-86
2022/04/22 06:33:38;;;;;;;9.20;6.15;;;;;;;;;;5128229;27;20028;-85
2022/04/22 06:36:11;;;;;;;8.20;5.68;;;;;;;;;;5124256;27;20019;-85
2022/04/22 06:38:38;;;;;;;7.85;6.07;;;;;;;;;;5118308;27;20065;-86
2022/04/22 06:46:32;;;;;;;6.90;5.63;;;;;;;;;;5128654;27;20034;-85
2022/04/22 06:48:58;;;;;;;8.05;6.40;;;;;;;;;;5131821;27;20098;-86
2022/04/22 06:51:25;;;;;;;8.85;7.47;;;;;;;;;;5119670;27;20378;-85
2022/04/22 06:53:52;;;;;;;8.18;6.55;;;;;;;;;;5120640;27;20023;-85
2022/04/22 06:56:23;;;;;;;6.75;5.80;;;;;;;;;;5125089;27;20034;-85
2022/04/22 06:58:49;;;;;;;8.82;6.93;;;;;;;;;;5124481;27;20031;-84
2022/04/22 07:01:17;;;;;;;26.92;18.73;;;;;;;;;;5118809;27;20045;-84
2022/04/22 07:03:43;;;;;;;10.35;7.75;;;;;;;;;;5116599;27;20110;-86
2022/04/22 07:06:09;;;;;;;9.45;6.30;;;;;;;;;;5122678;27;20102;-88
2022/04/22 07:08:35;;;;;;;9.50;6.43;;;;;;;;;;5119512;27;20428;-84
2022/04/22 07:11:02;;;;;;;8.27;6.93;;;;;;;;;;5120473;27;20045;-85
2022/04/22 07:13:28;;;;;;;7.38;5.78;;;;;;;;;;5116896;27;20019;-87
2022/04/22 07:15:54;;;;;;;7.35;5.70;;;;;;;;;;5115109;27;20038;-86
2022/04/22 07:18:19;;;;;;;8.13;5.40;;;;;;;;;;5130086;27;20135;-83
2022/04/22 07:20:45;;;;;;;8.65;6.63;;;;;;;;;;5122128;27;20028;-87
2022/04/22 07:23:15;;;;;;;8.73;6.10;;;;;;;;;;5127536;27;20031;-86
2022/04/22 07:25:46;;;;;;;6.75;5.55;;;;;;;;;;5129481;27;20027;-87
2022/04/22 07:28:13;;;;;;;6.30;5.35;;;;;;;;;;5131413;27;20385;-84
2022/04/22 07:30:40;;;;;;;9.45;5.53;;;;;;;;;;5128163;27;20032;-85
2022/04/22 07:33:08;;;;;;;6.88;5.43;;;;;;;;;;5114994;27;20027;-82
2022/04/22 07:35:34;;;;;;;7.15;5.75;;;;;;;;;;5124603;27;20034;-83
2022/04/22 07:38:00;;;;;;;6.70;5.38;;;;;;;;;;5130803;27;20023;-82
2022/04/22 07:40:26;;;;;;;7.90;4.65;;;;;;;;;;5130800;27;20059;-82
2022/04/22 07:48:26;;;;;;;6.20;4.85;;;;;;;;;;5123955;27;20071;-84
2022/04/22 07:50:54;;;;;;;5.85;5.15;;;;;;;;;;5128816;27;20061;-83
2022/04/22 07:53:21;;;;;;;5.97;5.15;;;;;;;;;;5131431;27;20022;-84
2022/04/22 07:55:48;;;;;;;5.95;4.60;;;;;;;;;;5120595;27;20023;-84
2022/04/22 07:58:14;;;;;;;6.38;5.03;;;;;;;;;;5124480;27;20023;-86
2022/04/22 08:00:41;;;;;;;6.60;4.82;;;;;;;;;;5113642;27;20038;-85
2022/04/22 08:03:07;;;;;;;5.82;4.40;;;;;;;;;;5116691;27;20374;-87
2022/04/22 08:05:33;;;;;;;5.40;4.60;;;;;;;;;;5126387;27;20390;-87
2022/04/22 08:08:07;;;;;;;7.30;4.47;;;;;;;;;;5115970;27;20032;-88
2022/04/22 08:10:36;;;;;;;5.50;4.30;;;;;;;;;;5122049;27;20025;-88
2022/04/22 08:13:05;;;;;;;5.40;4.70;;;;;;;;;;5112712;27;20437;-88
2022/04/22 08:15:31;;;;;;;6.05;4.30;;;;;;;;;;5116088;27;20489;-85
2022/04/22 08:17:56;;;;;;;5.70;4.32;;;;;;;;;;5120966;27;20019;-88
2022/04/22 08:20:22;;;;;;;6.25;4.22;;;;;;;;;;5123681;27;20019;-87
2022/04/22 08:22:47;;;;;;;5.47;4.15;;;;;;;;;;5112594;27;20059;-86
2022/04/22 08:25:13;;;;;;;7.97;4.80;;;;;;;;;;5130158;27;20103;-87
2022/04/22 08:27:39;;;;;;;7.20;4.30;;;;;;;;;;5112670;27;20379;-87
2022/04/22 08:30:06;;;;;;;6.32;4.40;;;;;;;;;;5111687;28;20035;-84
2022/04/22 08:32:32;;;;;;;4.57;3.60;;;;;;;;;;5120190;27;20030;-86
2022/04/22 08:34:57;;;;;;;5.05;4.13;;;;;;;;;;5124694;27;20360;-88
2022/04/22 08:37:23;;;;;;;6.32;4.25;;;;;;;;;;5119051;27;20023;-90
2022/04/22 08:39:48;;;;;;;5.22;4.07;;;;;;;;;;5124488;27;20051;-89
2022/04/22 08:42:15;;;;;;;5.50;4.35;;;;;;;;;;5120028;27;20034;-84
2022/04/22 08:44:41;;;;;;;4.82;4.07;;;;;;;;;;5120055;27;20076;-85
2022/04/22 08:50:02;;;;;;;4.47;3.75;;;;;;;;;;5129561;27;20038;-85
2022/04/22 08:52:33;;;;;;;6.95;4.10;;;;;;;;;;5119681;27;20020;-88
2022/04/22 08:54:59;;;;;;;5.13;3.58;;;;;;;;;;5120121;27;20023;-86
2022/04/22 08:57:24;;;;;;;5.65;4.10;;;;;;;;;;5117454;27;20034;-87
2022/04/22 08:59:50;;;;;;;3.90;3.20;;;;;;;;;;5121871;27;20023;-87
2022/04/22 09:02:17;;;;;;;4.68;3.30;;;;;;;;;;5113327;27;20102;-85
2022/04/22 09:04:44;;;;;;;4.72;4.00;;;;;;;;;;5111895;28;20081;-84
2022/04/22 09:07:18;;;;;;;5.72;4.22;;;;;;;;;;5122995;27;20034;-85
2022/04/22 09:09:50;;;;;;;6.88;4.10;;;;;;;;;;5118258;27;20475;-85
2022/04/22 09:12:19;;;;;;;4.57;3.47;;;;;;;;;;5121224;27;20019;-87
2022/04/22 09:14:50;;;;;;;5.88;3.40;;;;;;;;;;5111193;28;20035;-84
2022/04/22 09:17:20;;;;;;;5.05;3.63;;;;;;;;;;5121003;27;20038;-88
2022/04/22 09:19:46;;;;;;;4.38;3.42;;;;;;;;;;5114493;27;20080;-86
2022/04/22 09:22:17;;;;;;;4.32;3.47;;;;;;;;;;5125856;27;20019;-89
2022/04/22 09:24:54;;;;;;;4.75;3.83;;;;;;;;;;5118909;27;20119;-87
2022/04/22 09:27:37;;;;;;;4.50;3.55;;;;;;;;;;5114784;28;20053;-86
2022/04/22 09:30:09;;;;;;;4.30;3.83;;;;;;;;;;5118568;28;20027;-88
2022/04/22 09:32:39;;;;;;;6.75;4.10;;;;;;;;;;5125328;28;20015;-85
2022/04/22 09:35:17;;;;;;;14.25;11.60;;;;;;;;;;5124545;28;20023;-88
2022/04/22 09:43:37;;;;;;;4.30;2.95;;;;;;;;;;5125965;28;20054;-86
2022/04/22 09:46:04;;;;;;;5.32;4.05;;;;;;;;;;5124264;27;20573;-87
2022/04/22 09:48:44;;;;;;;4.85;3.40;;;;;;;;;;5122968;27;20046;-90
2022/04/22 09:51:24;;;;;;;5.32;4.03;;;;;;;;;;5125106;28;20129;-84
2022/04/22 09:54:05;;;;;;;5.03;3.13;;;;;;;;;;5117776;28;20049;-83
2022/04/22 09:56:34;;;;;;;7.22;3.35;;;;;;;;;;5110480;28;20059;-83
2022/04/22 09:59:21;;;;;;;6.07;3.13;;;;;;;;;;5115327;27;20059;-83
2022/04/22 10:01:48;;;;;;;4.97;3.38;;;;;;;;;;5099608;27;20433;-81
2022/04/22 10:04:19;;;;;;;6.78;3.13;;;;;;;;;;5116987;27;20132;-86
2022/04/22 10:06:45;;;;;;;5.03;3.53;;;;;;;;;;5118387;27;20028;-86
2022/04/22 10:09:16;;;;;;;6.97;3.58;;;;;;;;;;5120350;27;20514;-88
2022/04/22 10:11:43;;;;;;;4.90;3.22;;;;;;;;;;5115334;27;20374;-90
2022/04/22 10:14:11;;;;;;;6.70;3.30;;;;;;;;;;5118196;27;20043;-88
2022/04/22 10:16:37;;;;;;;6.43;3.47;;;;;;;;;;5114907;28;20076;-88
2022/04/22 10:19:04;;;;;;;33.70;24.42;;;;;;;;;;5114771;28;20031;-90
2022/04/22 10:21:30;;;;;;;117.40;91.53;;;;;;;;;;5128899;27;20050;-89
2022/04/22 10:23:56;;;;;;;40.97;26.92;;;;;;;;;;5134424;27;20031;-89
2022/04/22 10:26:23;;;;;;;279.15;160.57;;;;;;;;;;5125716;27;20433;-85
2022/04/22 10:28:49;;;;;;;366.48;196.55;;;;;;;;;;5127752;27;20035;-87
2022/04/22 10:31:16;;;;;;;130.63;63.55;;;;;;;;;;5124870;27;20106;-83
2022/04/22 10:33:45;;;;;;;658.35;386.83;;;;;;;;;;5119261;27;20134;-82
2022/04/22 10:36:18;;;;;;;511.02;278.10;;;;;;;;;;5127968;27;20022;-86
2022/04/22 10:38:48;;;;;;;10.52;6.80;;;;;;;;;;5118751;27;20502;-82
2022/04/22 10:41:14;;;;;;;4.75;3.30;;;;;;;;;;5119217;27;20034;-88
2022/04/22 10:43:40;;;;;;;4.07;3.28;;;;;;;;;;5116869;27;20031;-89
2022/04/22 10:49:15;;;;;;;5.88;3.70;;;;;;;;;;5124413;27;20106;-86
2022/04/22 10:52:15;;;;;;;4.88;3.35;;;;;;;;;;5116058;27;20034;-88
2022/04/22 10:54:52;;;;;;;4.97;3.33;;;;;;;;;;5128415;27;20038;-88
2022/04/22 10:57:23;;;;;;;22.15;17.48;;;;;;;;;;5123892;27;20031;-88
2022/04/22 11:00:03;;;;;;;11.02;9.80;;;;;;;;;;5115107;27;20027;-88
2022/04/22 11:02:34;;;;;;;5.22;3.63;;;;;;;;;;5119244;27;20468;-87
2022/04/22 11:05:20;;;;;;;6.90;3.25;;;;;;;;;;5124097;27;20015;-89
2022/04/22 11:07:58;;;;;;;6.68;3.45;;;;;;;;;;5115782;27;20027;-86
2022/04/22 11:10:32;;;;;;;3.80;3.00;;;;;;;;;;5126258;27;20030;-89
2022/04/22 11:12:59;;;;;;;4.78;3.33;;;;;;;;;;5119085;27;20386;-91
2022/04/22 11:15:43;;;;;;;6.13;3.20;;;;;;;;;;5120696;27;20102;-88
2022/04/22 11:18:16;;;;;;;5.35;3.55;;;;;;;;;;5118429;27;20384;-89
2022/04/22 11:21:10;;;;;;;4.70;3.22;;;;;;;;;;5125091;27;20051;-88
2022/04/22 11:23:40;;;;;;;3.70;2.70;;;;;;;;;;5117996;27;20095;-89
2022/04/22 11:26:11;;;;;;;5.72;3.10;;;;;;;;;;5118573;27;20034;-89
2022/04/22 11:28:38;;;;;;;18.00;15.02;;;;;;;;;;5115752;27;20027;-88
2022/04/22 11:31:07;;;;;;;14.82;12.80;;;;;;;;;;5113325;28;20029;-89
2022/04/22 11:34:02;;;;;;;4.78;3.30;;;;;;;;;;5121970;27;20027;-89
2022/04/22 11:36:28;;;;;;;4.97;3.30;;;;;;;;;;5116761;27;20180;-86
2022/04/22 11:38:55;;;;;;;4.25;3.22;;;;;;;;;;5121697;27;20046;-88
2022/04/22 11:41:21;;;;;;;8.90;2.92;;;;;;;;;;5117884;27;20032;-87
2022/04/22 11:43:47;;;;;;;5.13;2.95;;;;;;;;;;5117890;27;20024;-89
2022/04/22 11:46:15;;;;;;;5.18;3.00;;;;;;;;;;5131320;27;20038;-87
2022/04/22 11:48:48;;;;;;;5.78;2.88;;;;;;;;;;5116841;27;20475;-86
2022/04/22 11:51:15;;;;;;;3.83;2.95;;;;;;;;;;5124473;27;20029;-87
2022/04/22 11:53:52;;;;;;;4.97;3.35;;;;;;;;;;5125596;27;20031;-89
2022/04/22 11:56:22;;;;;;;22.35;13.32;;;;;;;;;;5125749;27;20077;-87
2022/04/22 11:58:55;;;;;;;9.45;4.38;;;;;;;;;;5115923;27;20069;-86
2022/04/22 12:06:57;;;;;;;5.47;3.05;;;;;;;;;;5124983;27;20035;-88
2022/04/22 12:09:22;;;;;;;5.63;3.00;;;;;;;;;;5119242;27;20490;-89
2022/04/22 12:11:50;;;;;;;5.85;2.85;;;;;;;;;;5119231;27;20019;-87
2022/04/22 12:14:26;;;;;;;7.25;2.92;;;;;;;;;;5127117;27;20390;-88
2022/04/22 12:16:59;;;;;;;8.07;2.97;;;;;;;;;;5120211;27;20027;-90
2022/04/22 12:19:26;;;;;;;6.28;2.65;;;;;;;;;;5123118;27;20023;-89
2022/04/22 12:21:52;;;;;;;6.13;3.13;;;;;;;;;;5113852;27;20032;-85
2022/04/22 12:24:19;;;;;;;5.55;2.90;;;;;;;;;;5123230;27;20027;-88
2022/04/22 12:26:47;;;;;;;5.82;3.30;;;;;;;;;;5118607;27;20035;-84
2022/04/22 12:29:17;;;;;;;19.95;17.05;;;;;;;;;;5118278;27;20030;-85
2022/04/22 12:31:43;;;;;;;6.93;3.78;;;;;;;;;;5122758;27;20038;-82
2022/04/22 12:34:28;;;;;;;4.15;3.22;;;;;;;;;;5121977;27;20094;-84
2022/04/22 12:36:56;;;;;;;7.13;3.10;;;;;;;;;;5112390;27;20038;-85
2022/04/22 12:39:41;;;;;;;9.35;3.38;;;;;;;;;;5113562;27;20043;-82
2022/04/22 12:42:26;;;;;;;6.20;3.60;;;;;;;;;;5122638;27;20031;-85
2022/04/22 12:54:03;;;;;;;14.77;11.25;;;;;;;;;;5123473;27;20498;-86
2022/04/22 12:56:29;;;;;;;24.73;19.55;;;;;;;;;;5120101;27;20051;-86
2022/04/22 12:58:59;;;;;;;7.78;4.93;;;;;;;;;;5115406;27;20108;-84
2022/04/22 13:01:34;;;;;;;5.22;3.40;;;;;;;;;;5121595;27;20065;-84
2022/04/22 13:03:59;;;;;;;5.53;3.40;;;;;;;;;;5124031;27;20019;-84
2022/04/22 13:06:42;;;;;;;6.25;3.20;;;;;;;;;;5118290;27;20123;-86
2022/04/22 13:09:18;;;;;;;7.10;3.67;;;;;;;;;;5118630;27;20022;-83
2022/04/22 13:11:45;;;;;;;7.57;3.60;;;;;;;;;;5128992;27;20024;-84
2022/04/22 13:14:15;;;;;;;5.63;3.78;;;;;;;;;;5125603;27;20038;-82
2022/04/22 13:16:40;;;;;;;6.10;3.95;;;;;;;;;;5125474;27;20110;-83
2022/04/22 13:19:06;;;;;;;6.40;3.97;;;;;;;;;;5115455;27;20096;-84
2022/04/22 13:21:32;;;;;;;7.10;3.72;;;;;;;;;;5116786;28;20475;-82
2022/04/22 13:24:02;;;;;;;6.63;3.88;;;;;;;;;;5125235;27;20088;-82
2022/04/22 13:26:27;;;;;;;5.65;3.92;;;;;;;;;;5115009;27;20031;-83
2022/04/22 13:28:56;;;;;;;6.68;3.70;;;;;;;;;;5114352;27;20039;-81
2022/04/22 13:31:22;;;;;;;6.57;5.03;;;;;;;;;;5124323;28;20024;-82
2022/04/22 13:33:48;;;;;;;5.28;4.30;;;;;;;;;;5113200;28;20066;-82
2022/04/22 13:36:15;;;;;;;8.52;4.45;;;;;;;;;;5117135;28;20059;-81
2022/04/22 13:38:43;;;;;;;4.93;4.20;;;;;;;;;;5114260;27;20067;-81
2022/04/22 13:41:18;;;;;;;6.65;3.80;;;;;;;;;;5116424;28;20535;-83
2022/04/22 13:43:43;;;;;;;5.00;3.88;;;;;;;;;;5114905;28;20122;-83
2022/04/22 13:54:21;;;;;;;7.25;4.00;;;;;;;;;;5131639;27;20092;-82
2022/04/22 13:56:47;;;;;;;6.05;4.20;;;;;;;;;;5120737;28;20035;-81
2022/04/22 13:59:13;;;;;;;6.70;4.50;;;;;;;;;;5119847;27;20031;-84
2022/04/22 14:01:39;;;;;;;5.32;4.13;;;;;;;;;;5127317;27;20031;-83
2022/04/22 14:04:06;;;;;;;5.65;3.83;;;;;;;;;;5125004;28;20436;-82
2022/04/22 14:06:31;;;;;;;4.72;4.07;;;;;;;;;;5129740;27;20576;-81
2022/04/22 14:08:57;;;;;;;10.70;4.53;;;;;;;;;;5120721;27;20020;-83
2022/04/22 14:11:23;;;;;;;5.53;4.28;;;;;;;;;;5121833;28;20019;-82
2022/04/22 14:13:48;;;;;;;6.53;4.97;;;;;;;;;;5121547;27;20525;-81
2022/04/22 14:16:14;;;;;;;9.50;4.43;;;;;;;;;;5126553;28;20035;-80
2022/04/22 14:18:40;;;;;;;6.13;3.88;;;;;;;;;;5112761;27;20386;-83
2022/04/22 14:21:05;;;;;;;7.47;4.38;;;;;;;;;;5120886;27;20031;-82
2022/04/22 14:23:31;;;;;;;5.95;4.50;;;;;;;;;;5117752;27;20385;-83
2022/04/22 14:25:57;;;;;;;5.07;4.55;;;;;;;;;;5121209;28;20122;-82
2022/04/22 14:28:24;;;;;;;6.22;4.30;;;;;;;;;;5117959;28;20574;-82
2022/04/22 14:30:53;;;;;;;4.60;4.20;;;;;;;;;;5124300;27;20015;-82
2022/04/22 14:33:20;;;;;;;7.28;5.05;;;;;;;;;;5120612;27;20379;-81
2022/04/22 14:35:46;;;;;;;7.15;4.30;;;;;;;;;;5119526;27;20023;-83
2022/04/22 14:38:12;;;;;;;10.75;4.00;;;;;;;;;;5121403;27;20064;-83
2022/04/22 14:40:37;;;;;;;5.55;3.97;;;;;;;;;;5115375;27;20031;-82
2022/04/22 14:43:06;;;;;;;5.53;4.22;;;;;;;;;;5132748;27;20023;-82
2022/04/22 14:45:33;;;;;;;8.05;4.00;;;;;;;;;;5126522;27;20778;-82
2022/04/22 14:47:58;;;;;;;6.05;4.38;;;;;;;;;;5126736;27;20035;-83
2022/04/22 14:50:24;;;;;;;6.60;4.00;;;;;;;;;;5117087;27;20424;-83
2022/04/22 14:52:50;;;;;;;4.72;3.80;;;;;;;;;;5121666;27;20030;-83
2022/04/22 14:55:16;;;;;;;6.95;3.72;;;;;;;;;;5118845;27;20481;-82
2022/04/22 14:57:42;;;;;;;5.20;3.17;;;;;;;;;;5129167;27;20511;-85
2022/04/22 15:00:09;;;;;;;6.45;3.85;;;;;;;;;;5130186;27;20019;-82
2022/04/22 15:02:35;;;;;;;4.18;3.03;;;;;;;;;;5127101;27;20027;-81
2022/04/22 15:05:03;;;;;;;5.22;2.50;;;;;;;;;;5127408;27;20458;-83
2022/04/22 15:08:12;;;;;;;6.32;2.80;;;;;;;;;;5113944;27;20036;-87
2022/04/22 15:10:37;;;;;;;4.90;3.30;;;;;;;;;;5106011;27;20032;-82
2022/04/22 15:13:02;;;;;;;6.70;3.60;;;;;;;;;;5123615;27;20762;-83
2022/04/22 15:15:28;;;;;;;7.90;5.40;;;;;;;;;;5122230;27;20065;-81
2022/04/22 15:26:05;;;;;;;4.10;2.22;;;;;;;;;;5123779;27;20390;-83
2022/04/22 15:28:31;;;;;;;5.20;1.90;;;;;;;;;;5127774;27;20027;-81
2022/04/22 15:30:59;;;;;;;4.95;1.85;;;;;;;;;;5131875;27;20062;-83
2022/04/22 15:33:25;;;;;;;4.35;2.50;;;;;;;;;;5120214;27;20086;-82
2022/04/22 15:35:51;;;;;;;5.22;3.20;;;;;;;;;;5134444;27;20126;-82
2022/04/22 15:38:16;;;;;;;6.85;3.42;;;;;;;;;;5132745;27;20043;-83
2022/04/22 15:40:42;;;;;;;9.10;4.40;;;;;;;;;;5119088;27;20027;-82
2022/04/22 15:43:08;;;;;;;5.28;4.43;;;;;;;;;;5131951;27;20027;-82
2022/04/22 15:45:34;;;;;;;11.90;5.10;;;;;;;;;;5137856;27;20026;-84
2022/04/22 15:47:59;;;;;;;8.05;5.60;;;;;;;;;;5134000;27;20039;-83
2022/04/22 15:50:25;;;;;;;6.97;5.10;;;;;;;;;;5113997;27;20035;-83
2022/04/22 15:52:50;;;;;;;5.50;4.70;;;;;;;;;;5123180;27;20023;-82
2022/04/22 15:55:16;;;;;;;8.60;4.75;;;;;;;;;;5132771;27;20382;-81
2022/04/22 15:57:42;;;;;;;6.95;4.20;;;;;;;;;;5128727;27;20347;-81
2022/04/22 16:00:10;;;;;;;5.97;4.70;;;;;;;;;;5131924;27;20027;-82
2022/04/22 16:02:35;;;;;;;6.97;4.55;;;;;;;;;;5136517;27;20023;-81
2022/04/22 16:05:01;;;;;;;7.50;5.20;;;;;;;;;;5130846;27;20102;-82
2022/04/22 16:07:27;;;;;;;7.75;4.68;;;;;;;;;;5120972;27;20051;-82
2022/04/22 16:09:53;;;;;;;7.88;5.13;;;;;;;;;;5118222;27;20027;-81
2022/04/22 16:15:18;;;;;;;8.23;4.97;;;;;;;;;;5130288;27;20037;-82